sensor_id;sensor_type;location;lat;lon;timestamp;P1;durP1;ratioP1;P2;durP2;ratioP2
29954;SDS011;16812;51.168;6.840;2022-10-04T00:00:26;15.80;;;9.27;;
29954;SDS011;16812;51.168;6.840;2022-10-04T00:02:57;17.00;;;9.07;;
29954;SDS011;16812;51.168;6.840;2022-10-04T00:05:26;16.57;;;9.40;;
29954;SDS011;16812;51.168;6.840;2022-10-04T00:07:56;14.23;;;8.73;;
29954;SDS011;16812;51.168;6.840;2022-10-04T00:10:24;19.43;;;9.47;;
29954;SDS011;16812;51.168;6.840;2022-10-04T00:12:55;16.10;;;8.43;;
29954;SDS011;16812;51.168;6.840;2022-10-04T00:15:26;27.87;;;9.13;;
29954;SDS011;16812;51.168;6.840;2022-10-04T00:17:58;14.27;;;8.13;;
29954;SDS011;16812;51.168;6.840;2022-10-04T00:23:25;15.33;;;8.10;;
29954;SDS011;16812;51.168;6.840;2022-10-04T00:25:53;13.53;;;8.37;;
29954;SDS011;16812;51.168;6.840;2022-10-04T00:28:28;14.63;;;8.87;;
29954;SDS011;16812;51.168;6.840;2022-10-04T00:31:10;13.73;;;7.97;;
29954;SDS011;16812;51.168;6.840;2022-10-04T00:33:38;14.33;;;7.50;;
29954;SDS011;16812;51.168;6.840;2022-10-04T00:39:00;16.50;;;8.00;;
29954;SDS011;16812;51.168;6.840;2022-10-04T00:41:27;12.80;;;7.20;;
29954;SDS011;16812;51.168;6.840;2022-10-04T00:43:56;12.83;;;7.40;;
29954;SDS011;16812;51.168;6.840;2022-10-04T00:46:25;12.40;;;8.00;;
29954;SDS011;16812;51.168;6.840;2022-10-04T00:48:54;11.27;;;7.33;;
29954;SDS011;16812;51.168;6.840;2022-10-04T00:51:24;13.67;;;8.80;;
29954;SDS011;16812;51.168;6.840;2022-10-04T00:53:56;15.03;;;7.20;;
29954;SDS011;16812;51.168;6.840;2022-10-04T00:56:26;8.73;;;6.30;;
29954;SDS011;16812;51.168;6.840;2022-10-04T00:59:08;13.47;;;7.97;;
29954;SDS011;16812;51.168;6.840;2022-10-04T01:01:38;20.87;;;9.20;;
29954;SDS011;16812;51.168;6.840;2022-10-04T01:04:06;9.83;;;6.93;;
29954;SDS011;16812;51.168;6.840;2022-10-04T01:06:40;12.90;;;6.93;;
29954;SDS011;16812;51.168;6.840;2022-10-04T01:09:09;11.43;;;8.40;;
29954;SDS011;16812;51.168;6.840;2022-10-04T01:11:39;15.10;;;7.30;;
29954;SDS011;16812;51.168;6.840;2022-10-04T01:14:10;16.60;;;8.50;;
29954;SDS011;16812;51.168;6.840;2022-10-04T01:16:41;10.30;;;7.90;;
29954;SDS011;16812;51.168;6.840;2022-10-04T01:19:18;12.20;;;7.00;;
29954;SDS011;16812;51.168;6.840;2022-10-04T01:21:55;10.77;;;7.10;;
29954;SDS011;16812;51.168;6.840;2022-10-04T01:24:25;10.80;;;6.23;;
29954;SDS011;16812;51.168;6.840;2022-10-04T01:26:58;14.90;;;7.10;;
29954;SDS011;16812;51.168;6.840;2022-10-04T01:29:26;10.10;;;6.77;;
29954;SDS011;16812;51.168;6.840;2022-10-04T01:31:55;12.30;;;6.53;;
29954;SDS011;16812;51.168;6.840;2022-10-04T01:34:23;11.20;;;7.50;;
29954;SDS011;16812;51.168;6.840;2022-10-04T01:36:52;11.10;;;6.27;;
29954;SDS011;16812;51.168;6.840;2022-10-04T01:39:20;8.40;;;6.37;;
29954;SDS011;16812;51.168;6.840;2022-10-04T01:41:50;11.50;;;7.27;;
29954;SDS011;16812;51.168;6.840;2022-10-04T01:44:22;9.63;;;6.20;;
29954;SDS011;16812;51.168;6.840;2022-10-04T01:46:50;15.53;;;7.27;;
29954;SDS011;16812;51.168;6.840;2022-10-04T01:49:19;11.83;;;6.80;;
29954;SDS011;16812;51.168;6.840;2022-10-04T01:51:48;13.63;;;7.13;;
29954;SDS011;16812;51.168;6.840;2022-10-04T01:54:19;10.00;;;6.47;;
29954;SDS011;16812;51.168;6.840;2022-10-04T01:56:51;16.13;;;7.13;;
29954;SDS011;16812;51.168;6.840;2022-10-04T01:59:20;13.03;;;6.40;;
29954;SDS011;16812;51.168;6.840;2022-10-04T02:01:49;11.70;;;6.27;;
29954;SDS011;16812;51.168;6.840;2022-10-04T02:04:18;13.83;;;7.70;;
29954;SDS011;16812;51.168;6.840;2022-10-04T02:06:48;12.77;;;7.60;;
29954;SDS011;16812;51.168;6.840;2022-10-04T02:09:17;22.37;;;7.40;;
29954;SDS011;16812;51.168;6.840;2022-10-04T02:11:46;13.33;;;7.20;;
29954;SDS011;16812;51.168;6.840;2022-10-04T02:14:16;14.30;;;8.47;;
29954;SDS011;16812;51.168;6.840;2022-10-04T02:16:44;15.13;;;7.77;;
29954;SDS011;16812;51.168;6.840;2022-10-04T02:19:12;14.67;;;7.70;;
29954;SDS011;16812;51.168;6.840;2022-10-04T02:21:40;12.53;;;7.80;;
29954;SDS011;16812;51.168;6.840;2022-10-04T02:24:08;11.00;;;7.33;;
29954;SDS011;16812;51.168;6.840;2022-10-04T02:26:36;15.93;;;8.23;;
29954;SDS011;16812;51.168;6.840;2022-10-04T02:29:03;14.03;;;8.60;;
29954;SDS011;16812;51.168;6.840;2022-10-04T02:31:32;13.57;;;8.37;;
29954;SDS011;16812;51.168;6.840;2022-10-04T02:33:59;18.23;;;8.90;;
29954;SDS011;16812;51.168;6.840;2022-10-04T02:36:26;16.93;;;7.97;;
29954;SDS011;16812;51.168;6.840;2022-10-04T02:38:56;10.93;;;7.70;;
29954;SDS011;16812;51.168;6.840;2022-10-04T02:41:26;18.93;;;7.03;;
29954;SDS011;16812;51.168;6.840;2022-10-04T02:43:54;11.63;;;7.97;;
29954;SDS011;16812;51.168;6.840;2022-10-04T02:46:22;12.00;;;8.17;;
29954;SDS011;16812;51.168;6.840;2022-10-04T02:48:53;14.03;;;6.97;;
29954;SDS011;16812;51.168;6.840;2022-10-04T02:51:22;11.53;;;7.80;;
29954;SDS011;16812;51.168;6.840;2022-10-04T02:53:55;24.03;;;8.17;;
29954;SDS011;16812;51.168;6.840;2022-10-04T02:56:29;16.27;;;7.20;;
29954;SDS011;16812;51.168;6.840;2022-10-04T02:58:59;20.37;;;7.90;;
29954;SDS011;16812;51.168;6.840;2022-10-04T03:01:27;11.43;;;7.63;;
29954;SDS011;16812;51.168;6.840;2022-10-04T03:03:56;10.63;;;7.40;;
29954;SDS011;16812;51.168;6.840;2022-10-04T03:06:26;16.33;;;7.10;;
29954;SDS011;16812;51.168;6.840;2022-10-04T03:08:55;14.20;;;7.67;;
29954;SDS011;16812;51.168;6.840;2022-10-04T03:11:23;20.33;;;7.83;;
29954;SDS011;16812;51.168;6.840;2022-10-04T03:13:51;13.90;;;7.57;;
29954;SDS011;16812;51.168;6.840;2022-10-04T03:16:19;15.03;;;7.80;;
29954;SDS011;16812;51.168;6.840;2022-10-04T03:18:47;14.33;;;7.80;;
29954;SDS011;16812;51.168;6.840;2022-10-04T03:21:17;11.70;;;7.20;;
29954;SDS011;16812;51.168;6.840;2022-10-04T03:23:44;18.57;;;7.57;;
29954;SDS011;16812;51.168;6.840;2022-10-04T03:26:14;13.23;;;7.30;;
29954;SDS011;16812;51.168;6.840;2022-10-04T03:28:42;8.50;;;6.60;;
29954;SDS011;16812;51.168;6.840;2022-10-04T03:31:09;15.90;;;8.53;;
29954;SDS011;16812;51.168;6.840;2022-10-04T03:33:36;11.10;;;7.63;;
29954;SDS011;16812;51.168;6.840;2022-10-04T03:36:03;13.87;;;7.60;;
29954;SDS011;16812;51.168;6.840;2022-10-04T03:38:32;14.57;;;7.60;;
29954;SDS011;16812;51.168;6.840;2022-10-04T03:41:00;11.60;;;8.57;;
29954;SDS011;16812;51.168;6.840;2022-10-04T03:43:29;18.47;;;8.20;;
29954;SDS011;16812;51.168;6.840;2022-10-04T03:45:56;13.90;;;8.60;;
29954;SDS011;16812;51.168;6.840;2022-10-04T03:48:26;14.37;;;8.80;;
29954;SDS011;16812;51.168;6.840;2022-10-04T03:50:54;17.47;;;9.13;;
29954;SDS011;16812;51.168;6.840;2022-10-04T03:53:31;14.30;;;8.30;;
29954;SDS011;16812;51.168;6.840;2022-10-04T03:56:02;16.60;;;9.03;;
29954;SDS011;16812;51.168;6.840;2022-10-04T03:58:33;12.80;;;8.77;;
29954;SDS011;16812;51.168;6.840;2022-10-04T04:01:08;14.70;;;8.17;;
29954;SDS011;16812;51.168;6.840;2022-10-04T04:03:40;15.43;;;9.50;;
29954;SDS011;16812;51.168;6.840;2022-10-04T04:06:11;13.00;;;8.30;;
29954;SDS011;16812;51.168;6.840;2022-10-04T04:08:41;13.63;;;8.13;;
29954;SDS011;16812;51.168;6.840;2022-10-04T04:11:13;13.63;;;7.87;;
29954;SDS011;16812;51.168;6.840;2022-10-04T04:13:42;16.40;;;7.60;;
29954;SDS011;16812;51.168;6.840;2022-10-04T04:16:12;14.70;;;7.83;;
29954;SDS011;16812;51.168;6.840;2022-10-04T04:18:40;15.37;;;8.53;;
29954;SDS011;16812;51.168;6.840;2022-10-04T04:21:09;14.80;;;9.70;;
29954;SDS011;16812;51.168;6.840;2022-10-04T04:23:39;15.60;;;8.37;;
29954;SDS011;16812;51.168;6.840;2022-10-04T04:26:18;14.63;;;8.20;;
29954;SDS011;16812;51.168;6.840;2022-10-04T04:28:49;19.20;;;9.43;;
29954;SDS011;16812;51.168;6.840;2022-10-04T04:31:19;19.90;;;8.50;;
29954;SDS011;16812;51.168;6.840;2022-10-04T04:33:48;14.07;;;8.70;;
29954;SDS011;16812;51.168;6.840;2022-10-04T04:36:17;21.87;;;9.30;;
29954;SDS011;16812;51.168;6.840;2022-10-04T04:38:44;15.10;;;9.57;;
29954;SDS011;16812;51.168;6.840;2022-10-04T04:41:11;25.60;;;8.30;;
29954;SDS011;16812;51.168;6.840;2022-10-04T04:43:42;15.77;;;10.27;;
29954;SDS011;16812;51.168;6.840;2022-10-04T04:46:10;13.70;;;8.80;;
29954;SDS011;16812;51.168;6.840;2022-10-04T04:48:55;19.30;;;9.23;;
29954;SDS011;16812;51.168;6.840;2022-10-04T04:51:23;17.87;;;9.00;;
29954;SDS011;16812;51.168;6.840;2022-10-04T04:53:50;19.87;;;10.83;;
29954;SDS011;16812;51.168;6.840;2022-10-04T04:56:19;19.47;;;11.60;;
29954;SDS011;16812;51.168;6.840;2022-10-04T04:58:48;19.33;;;11.97;;
29954;SDS011;16812;51.168;6.840;2022-10-04T05:01:17;20.73;;;11.17;;
29954;SDS011;16812;51.168;6.840;2022-10-04T05:03:58;18.13;;;11.53;;
29954;SDS011;16812;51.168;6.840;2022-10-04T05:06:26;16.50;;;11.10;;
29954;SDS011;16812;51.168;6.840;2022-10-04T05:08:53;16.87;;;10.90;;
29954;SDS011;16812;51.168;6.840;2022-10-04T05:11:21;18.60;;;11.77;;
29954;SDS011;16812;51.168;6.840;2022-10-04T05:13:50;22.67;;;11.60;;
29954;SDS011;16812;51.168;6.840;2022-10-04T05:16:18;25.33;;;12.17;;
29954;SDS011;16812;51.168;6.840;2022-10-04T05:18:46;20.27;;;11.73;;
29954;SDS011;16812;51.168;6.840;2022-10-04T05:21:16;27.67;;;11.93;;
29954;SDS011;16812;51.168;6.840;2022-10-04T05:23:46;33.63;;;13.50;;
29954;SDS011;16812;51.168;6.840;2022-10-04T05:26:13;20.33;;;12.33;;
29954;SDS011;16812;51.168;6.840;2022-10-04T05:28:40;20.30;;;12.53;;
29954;SDS011;16812;51.168;6.840;2022-10-04T05:33:54;24.40;;;13.03;;
29954;SDS011;16812;51.168;6.840;2022-10-04T05:36:35;32.30;;;12.73;;
29954;SDS011;16812;51.168;6.840;2022-10-04T05:39:06;28.33;;;13.23;;
29954;SDS011;16812;51.168;6.840;2022-10-04T05:41:37;18.17;;;12.00;;
29954;SDS011;16812;51.168;6.840;2022-10-04T05:44:16;25.17;;;13.20;;
29954;SDS011;16812;51.168;6.840;2022-10-04T05:46:43;20.60;;;12.27;;
29954;SDS011;16812;51.168;6.840;2022-10-04T05:49:12;24.13;;;12.60;;
29954;SDS011;16812;51.168;6.840;2022-10-04T05:51:48;28.23;;;13.63;;
29954;SDS011;16812;51.168;6.840;2022-10-04T05:54:17;23.43;;;13.20;;
29954;SDS011;16812;51.168;6.840;2022-10-04T05:56:54;21.37;;;12.73;;
29954;SDS011;16812;51.168;6.840;2022-10-04T05:59:38;22.40;;;14.93;;
29954;SDS011;16812;51.168;6.840;2022-10-04T06:02:12;24.30;;;14.00;;
29954;SDS011;16812;51.168;6.840;2022-10-04T06:04:47;21.17;;;13.13;;
29954;SDS011;16812;51.168;6.840;2022-10-04T06:07:22;28.67;;;13.10;;
29954;SDS011;16812;51.168;6.840;2022-10-04T06:12:45;23.30;;;13.37;;
29954;SDS011;16812;51.168;6.840;2022-10-04T06:20:58;22.07;;;13.33;;
29954;SDS011;16812;51.168;6.840;2022-10-04T06:23:31;22.13;;;12.37;;
29954;SDS011;16812;51.168;6.840;2022-10-04T06:26:01;25.63;;;12.70;;
29954;SDS011;16812;51.168;6.840;2022-10-04T06:28:32;26.07;;;14.10;;
29954;SDS011;16812;51.168;6.840;2022-10-04T06:31:05;19.27;;;10.83;;
29954;SDS011;16812;51.168;6.840;2022-10-04T06:33:37;18.70;;;12.53;;
29954;SDS011;16812;51.168;6.840;2022-10-04T06:39:01;24.20;;;11.50;;
29954;SDS011;16812;51.168;6.840;2022-10-04T06:41:35;17.73;;;9.73;;
29954;SDS011;16812;51.168;6.840;2022-10-04T06:44:20;17.33;;;9.83;;
29954;SDS011;16812;51.168;6.840;2022-10-04T06:46:55;20.00;;;10.77;;
29954;SDS011;16812;51.168;6.840;2022-10-04T06:49:28;17.50;;;11.50;;
29954;SDS011;16812;51.168;6.840;2022-10-04T06:52:01;22.30;;;10.73;;
29954;SDS011;16812;51.168;6.840;2022-10-04T06:54:36;18.77;;;9.07;;
29954;SDS011;16812;51.168;6.840;2022-10-04T06:57:13;18.37;;;10.40;;
29954;SDS011;16812;51.168;6.840;2022-10-04T06:59:47;19.33;;;9.93;;
29954;SDS011;16812;51.168;6.840;2022-10-04T07:02:19;14.03;;;7.87;;
29954;SDS011;16812;51.168;6.840;2022-10-04T07:04:48;15.83;;;9.50;;
29954;SDS011;16812;51.168;6.840;2022-10-04T07:07:34;13.10;;;9.27;;
29954;SDS011;16812;51.168;6.840;2022-10-04T07:10:14;20.00;;;9.47;;
29954;SDS011;16812;51.168;6.840;2022-10-04T07:12:43;20.70;;;9.07;;
29954;SDS011;16812;51.168;6.840;2022-10-04T07:15:14;14.33;;;9.20;;
29954;SDS011;16812;51.168;6.840;2022-10-04T07:17:42;14.90;;;8.73;;
29954;SDS011;16812;51.168;6.840;2022-10-04T07:20:14;16.20;;;9.10;;
29954;SDS011;16812;51.168;6.840;2022-10-04T07:22:43;17.03;;;8.90;;
29954;SDS011;16812;51.168;6.840;2022-10-04T07:25:15;13.03;;;8.53;;
29954;SDS011;16812;51.168;6.840;2022-10-04T07:27:46;14.40;;;8.70;;
29954;SDS011;16812;51.168;6.840;2022-10-04T07:30:14;14.27;;;8.63;;
29954;SDS011;16812;51.168;6.840;2022-10-04T07:32:43;19.57;;;9.27;;
29954;SDS011;16812;51.168;6.840;2022-10-04T07:35:15;20.93;;;9.23;;
29954;SDS011;16812;51.168;6.840;2022-10-04T07:37:47;13.60;;;9.07;;
29954;SDS011;16812;51.168;6.840;2022-10-04T07:40:19;15.97;;;8.80;;
29954;SDS011;16812;51.168;6.840;2022-10-04T07:42:50;15.23;;;9.63;;
29954;SDS011;16812;51.168;6.840;2022-10-04T07:45:18;15.40;;;9.10;;
29954;SDS011;16812;51.168;6.840;2022-10-04T07:47:47;17.13;;;9.50;;
29954;SDS011;16812;51.168;6.840;2022-10-04T07:50:23;15.17;;;8.40;;
29954;SDS011;16812;51.168;6.840;2022-10-04T07:52:53;15.73;;;8.60;;
29954;SDS011;16812;51.168;6.840;2022-10-04T07:55:24;20.13;;;8.97;;
29954;SDS011;16812;51.168;6.840;2022-10-04T07:57:54;16.47;;;9.30;;
29954;SDS011;16812;51.168;6.840;2022-10-04T08:00:23;17.77;;;8.37;;
29954;SDS011;16812;51.168;6.840;2022-10-04T08:02:55;13.40;;;9.83;;
29954;SDS011;16812;51.168;6.840;2022-10-04T08:05:26;21.63;;;10.57;;
29954;SDS011;16812;51.168;6.840;2022-10-04T08:08:07;19.33;;;9.90;;
29954;SDS011;16812;51.168;6.840;2022-10-04T08:10:41;11.97;;;8.60;;
29954;SDS011;16812;51.168;6.840;2022-10-04T08:13:14;14.53;;;9.47;;
29954;SDS011;16812;51.168;6.840;2022-10-04T08:15:43;18.03;;;10.17;;
29954;SDS011;16812;51.168;6.840;2022-10-04T08:18:16;14.87;;;9.17;;
29954;SDS011;16812;51.168;6.840;2022-10-04T08:20:47;14.80;;;10.00;;
29954;SDS011;16812;51.168;6.840;2022-10-04T08:23:19;18.27;;;8.87;;
29954;SDS011;16812;51.168;6.840;2022-10-04T08:25:52;16.70;;;10.13;;
29954;SDS011;16812;51.168;6.840;2022-10-04T08:28:26;17.83;;;9.80;;
29954;SDS011;16812;51.168;6.840;2022-10-04T08:31:02;14.27;;;10.43;;
29954;SDS011;16812;51.168;6.840;2022-10-04T08:33:38;18.33;;;9.97;;
29954;SDS011;16812;51.168;6.840;2022-10-04T08:36:10;13.83;;;8.60;;
29954;SDS011;16812;51.168;6.840;2022-10-04T08:38:45;11.77;;;7.87;;
29954;SDS011;16812;51.168;6.840;2022-10-04T08:47:25;12.90;;;8.53;;
29954;SDS011;16812;51.168;6.840;2022-10-04T08:52:53;14.80;;;8.30;;
29954;SDS011;16812;51.168;6.840;2022-10-04T08:55:30;10.33;;;6.97;;
29954;SDS011;16812;51.168;6.840;2022-10-04T08:58:08;10.20;;;6.43;;
29954;SDS011;16812;51.168;6.840;2022-10-04T09:00:44;12.33;;;6.50;;
29954;SDS011;16812;51.168;6.840;2022-10-04T09:03:27;8.83;;;6.03;;
29954;SDS011;16812;51.168;6.840;2022-10-04T09:06:01;10.90;;;6.40;;
29954;SDS011;16812;51.168;6.840;2022-10-04T09:08:41;16.83;;;7.00;;
29954;SDS011;16812;51.168;6.840;2022-10-04T09:11:26;10.30;;;6.70;;
29954;SDS011;16812;51.168;6.840;2022-10-04T09:14:00;12.83;;;6.60;;
29954;SDS011;16812;51.168;6.840;2022-10-04T09:16:30;11.13;;;6.20;;
29954;SDS011;16812;51.168;6.840;2022-10-04T09:19:13;15.00;;;7.40;;
29954;SDS011;16812;51.168;6.840;2022-10-04T09:21:48;7.90;;;5.67;;
29954;SDS011;16812;51.168;6.840;2022-10-04T09:27:30;6.67;;;5.60;;
29954;SDS011;16812;51.168;6.840;2022-10-04T09:30:20;12.97;;;6.10;;
29954;SDS011;16812;51.168;6.840;2022-10-04T09:32:51;9.60;;;5.83;;
29954;SDS011;16812;51.168;6.840;2022-10-04T09:35:36;7.17;;;5.77;;
29954;SDS011;16812;51.168;6.840;2022-10-04T09:40:53;13.17;;;6.17;;
29954;SDS011;16812;51.168;6.840;2022-10-04T09:46:14;11.77;;;6.40;;
29954;SDS011;16812;51.168;6.840;2022-10-04T09:48:44;10.50;;;6.30;;
29954;SDS011;16812;51.168;6.840;2022-10-04T09:51:22;10.43;;;6.20;;
29954;SDS011;16812;51.168;6.840;2022-10-04T09:53:56;8.03;;;5.23;;
29954;SDS011;16812;51.168;6.840;2022-10-04T09:56:31;10.10;;;5.53;;
29954;SDS011;16812;51.168;6.840;2022-10-04T09:59:09;9.27;;;5.70;;
29954;SDS011;16812;51.168;6.840;2022-10-04T10:01:41;7.10;;;5.53;;
29954;SDS011;16812;51.168;6.840;2022-10-04T10:04:23;8.50;;;5.93;;
29954;SDS011;16812;51.168;6.840;2022-10-04T10:07:02;10.23;;;5.80;;
29954;SDS011;16812;51.168;6.840;2022-10-04T10:09:35;7.60;;;5.77;;
29954;SDS011;16812;51.168;6.840;2022-10-04T10:12:12;8.00;;;6.40;;
29954;SDS011;16812;51.168;6.840;2022-10-04T10:17:28;6.93;;;5.27;;
29954;SDS011;16812;51.168;6.840;2022-10-04T10:22:57;6.37;;;4.73;;
29954;SDS011;16812;51.168;6.840;2022-10-04T10:25:32;9.47;;;5.60;;
29954;SDS011;16812;51.168;6.840;2022-10-04T10:28:11;8.50;;;5.33;;
29954;SDS011;16812;51.168;6.840;2022-10-04T10:30:47;7.57;;;4.57;;
29954;SDS011;16812;51.168;6.840;2022-10-04T10:33:34;8.97;;;5.50;;
29954;SDS011;16812;51.168;6.840;2022-10-04T10:36:08;5.93;;;4.50;;
29954;SDS011;16812;51.168;6.840;2022-10-04T10:38:46;6.37;;;4.80;;
29954;SDS011;16812;51.168;6.840;2022-10-04T10:41:27;6.57;;;4.97;;
29954;SDS011;16812;51.168;6.840;2022-10-04T10:44:07;8.10;;;5.23;;
29954;SDS011;16812;51.168;6.840;2022-10-04T10:46:44;6.00;;;4.83;;
29954;SDS011;16812;51.168;6.840;2022-10-04T10:49:19;5.77;;;4.20;;
29954;SDS011;16812;51.168;6.840;2022-10-04T10:51:54;7.80;;;4.30;;
29954;SDS011;16812;51.168;6.840;2022-10-04T10:54:36;7.30;;;4.10;;
29954;SDS011;16812;51.168;6.840;2022-10-04T10:57:09;5.70;;;4.10;;
29954;SDS011;16812;51.168;6.840;2022-10-04T10:59:57;5.77;;;4.00;;
29954;SDS011;16812;51.168;6.840;2022-10-04T11:02:48;11.40;;;5.07;;
29954;SDS011;16812;51.168;6.840;2022-10-04T11:05:54;8.63;;;5.40;;
29954;SDS011;16812;51.168;6.840;2022-10-04T11:08:35;10.80;;;4.87;;
29954;SDS011;16812;51.168;6.840;2022-10-04T11:11:19;8.20;;;4.30;;
29954;SDS011;16812;51.168;6.840;2022-10-04T11:19:31;6.30;;;4.40;;
29954;SDS011;16812;51.168;6.840;2022-10-04T11:27:46;7.53;;;5.00;;
29954;SDS011;16812;51.168;6.840;2022-10-04T11:30:17;12.53;;;5.17;;
29954;SDS011;16812;51.168;6.840;2022-10-04T11:32:50;13.00;;;5.07;;
29954;SDS011;16812;51.168;6.840;2022-10-04T11:35:31;7.60;;;5.13;;
29954;SDS011;16812;51.168;6.840;2022-10-04T11:38:02;8.27;;;5.50;;
29954;SDS011;16812;51.168;6.840;2022-10-04T11:40:38;13.33;;;5.27;;
29954;SDS011;16812;51.168;6.840;2022-10-04T11:43:17;10.00;;;5.77;;
29954;SDS011;16812;51.168;6.840;2022-10-04T11:48:37;6.30;;;4.80;;
29954;SDS011;16812;51.168;6.840;2022-10-04T11:51:21;12.03;;;4.80;;
29954;SDS011;16812;51.168;6.840;2022-10-04T11:56:40;10.50;;;6.17;;
29954;SDS011;16812;51.168;6.840;2022-10-04T11:59:17;5.43;;;4.83;;
29954;SDS011;16812;51.168;6.840;2022-10-04T12:01:51;8.40;;;6.00;;
29954;SDS011;16812;51.168;6.840;2022-10-04T12:04:29;5.80;;;4.63;;
29954;SDS011;16812;51.168;6.840;2022-10-04T12:07:06;9.97;;;4.30;;
29954;SDS011;16812;51.168;6.840;2022-10-04T12:09:37;10.23;;;4.90;;
29954;SDS011;16812;51.168;6.840;2022-10-04T12:12:13;5.33;;;4.07;;
29954;SDS011;16812;51.168;6.840;2022-10-04T12:14:52;9.90;;;4.50;;
29954;SDS011;16812;51.168;6.840;2022-10-04T12:17:45;4.80;;;3.83;;
29954;SDS011;16812;51.168;6.840;2022-10-04T12:20:17;6.97;;;4.43;;
29954;SDS011;16812;51.168;6.840;2022-10-04T12:23:01;8.50;;;4.20;;
29954;SDS011;16812;51.168;6.840;2022-10-04T12:28:23;6.60;;;3.87;;
29954;SDS011;16812;51.168;6.840;2022-10-04T12:31:04;8.03;;;4.47;;
29954;SDS011;16812;51.168;6.840;2022-10-04T12:33:34;7.77;;;4.20;;
29954;SDS011;16812;51.168;6.840;2022-10-04T12:36:07;5.63;;;4.47;;
29954;SDS011;16812;51.168;6.840;2022-10-04T12:38:44;9.90;;;4.40;;
29954;SDS011;16812;51.168;6.840;2022-10-04T12:41:17;6.40;;;4.33;;
29954;SDS011;16812;51.168;6.840;2022-10-04T12:43:50;3.97;;;3.57;;
29954;SDS011;16812;51.168;6.840;2022-10-04T12:46:25;6.57;;;4.73;;
29954;SDS011;16812;51.168;6.840;2022-10-04T12:48:58;8.60;;;5.10;;
29954;SDS011;16812;51.168;6.840;2022-10-04T12:51:33;6.10;;;4.30;;
29954;SDS011;16812;51.168;6.840;2022-10-04T12:54:06;8.40;;;3.93;;
29954;SDS011;16812;51.168;6.840;2022-10-04T12:56:40;8.27;;;4.30;;
29954;SDS011;16812;51.168;6.840;2022-10-04T12:59:14;7.27;;;4.20;;
29954;SDS011;16812;51.168;6.840;2022-10-04T13:01:45;9.67;;;4.73;;
29954;SDS011;16812;51.168;6.840;2022-10-04T13:04:17;7.00;;;4.07;;
29954;SDS011;16812;51.168;6.840;2022-10-04T13:06:50;9.57;;;4.60;;
29954;SDS011;16812;51.168;6.840;2022-10-04T13:09:23;5.27;;;4.60;;
29954;SDS011;16812;51.168;6.840;2022-10-04T13:12:00;4.73;;;3.47;;
29954;SDS011;16812;51.168;6.840;2022-10-04T13:14:40;5.13;;;3.40;;
29954;SDS011;16812;51.168;6.840;2022-10-04T13:17:12;8.03;;;3.83;;
29954;SDS011;16812;51.168;6.840;2022-10-04T13:20:00;7.50;;;4.10;;
29954;SDS011;16812;51.168;6.840;2022-10-04T13:22:32;4.67;;;3.53;;
29954;SDS011;16812;51.168;6.840;2022-10-04T13:25:24;4.97;;;3.27;;
29954;SDS011;16812;51.168;6.840;2022-10-04T13:27:53;10.00;;;3.40;;
29954;SDS011;16812;51.168;6.840;2022-10-04T13:30:24;5.83;;;4.20;;
29954;SDS011;16812;51.168;6.840;2022-10-04T13:32:56;8.60;;;3.97;;
29954;SDS011;16812;51.168;6.840;2022-10-04T13:35:26;5.83;;;3.87;;
29954;SDS011;16812;51.168;6.840;2022-10-04T13:38:06;6.03;;;4.07;;
29954;SDS011;16812;51.168;6.840;2022-10-04T13:40:46;7.40;;;3.80;;
29954;SDS011;16812;51.168;6.840;2022-10-04T13:46:05;7.03;;;4.30;;
29954;SDS011;16812;51.168;6.840;2022-10-04T13:48:46;7.60;;;4.10;;
29954;SDS011;16812;51.168;6.840;2022-10-04T13:54:10;5.63;;;3.90;;
29954;SDS011;16812;51.168;6.840;2022-10-04T13:59:22;7.57;;;4.20;;
29954;SDS011;16812;51.168;6.840;2022-10-04T14:07:50;6.53;;;3.60;;
29954;SDS011;16812;51.168;6.840;2022-10-04T14:16:14;4.50;;;3.20;;
29954;SDS011;16812;51.168;6.840;2022-10-04T14:19:01;3.83;;;3.43;;
29954;SDS011;16812;51.168;6.840;2022-10-04T14:21:42;6.70;;;3.53;;
29954;SDS011;16812;51.168;6.840;2022-10-04T14:27:20;9.40;;;3.90;;
29954;SDS011;16812;51.168;6.840;2022-10-04T14:30:02;7.63;;;3.77;;
29954;SDS011;16812;51.168;6.840;2022-10-04T14:35:19;4.53;;;3.80;;
29954;SDS011;16812;51.168;6.840;2022-10-04T14:37:54;6.47;;;3.30;;
29954;SDS011;16812;51.168;6.840;2022-10-04T14:40:34;5.63;;;4.10;;
29954;SDS011;16812;51.168;6.840;2022-10-04T14:43:15;6.50;;;4.30;;
29954;SDS011;16812;51.168;6.840;2022-10-04T14:45:53;7.97;;;3.80;;
29954;SDS011;16812;51.168;6.840;2022-10-04T14:48:24;4.53;;;4.00;;
29954;SDS011;16812;51.168;6.840;2022-10-04T14:50:57;9.03;;;3.80;;
29954;SDS011;16812;51.168;6.840;2022-10-04T14:53:30;6.00;;;3.93;;
29954;SDS011;16812;51.168;6.840;2022-10-04T14:56:05;4.70;;;3.20;;
29954;SDS011;16812;51.168;6.840;2022-10-04T14:58:38;5.70;;;3.87;;
29954;SDS011;16812;51.168;6.840;2022-10-04T15:01:13;10.17;;;4.50;;
29954;SDS011;16812;51.168;6.840;2022-10-04T15:03:45;4.93;;;3.60;;
29954;SDS011;16812;51.168;6.840;2022-10-04T15:06:23;4.80;;;2.90;;
29954;SDS011;16812;51.168;6.840;2022-10-04T15:09:06;5.60;;;3.63;;
29954;SDS011;16812;51.168;6.840;2022-10-04T15:11:39;5.07;;;3.40;;
29954;SDS011;16812;51.168;6.840;2022-10-04T15:16:55;5.00;;;3.37;;
29954;SDS011;16812;51.168;6.840;2022-10-04T15:19:25;5.20;;;3.43;;
29954;SDS011;16812;51.168;6.840;2022-10-04T15:21:58;5.73;;;3.70;;
29954;SDS011;16812;51.168;6.840;2022-10-04T15:24:27;14.17;;;4.07;;
29954;SDS011;16812;51.168;6.840;2022-10-04T15:27:02;3.10;;;2.70;;
29954;SDS011;16812;51.168;6.840;2022-10-04T15:29:42;8.00;;;4.00;;
29954;SDS011;16812;51.168;6.840;2022-10-04T15:32:17;5.37;;;3.30;;
29954;SDS011;16812;51.168;6.840;2022-10-04T15:34:46;5.53;;;3.47;;
29954;SDS011;16812;51.168;6.840;2022-10-04T15:37:19;8.03;;;4.23;;
29954;SDS011;16812;51.168;6.840;2022-10-04T15:39:52;7.87;;;3.80;;
29954;SDS011;16812;51.168;6.840;2022-10-04T15:42:24;4.83;;;3.20;;
29954;SDS011;16812;51.168;6.840;2022-10-04T15:45:01;6.90;;;3.70;;
29954;SDS011;16812;51.168;6.840;2022-10-04T15:47:33;9.97;;;4.03;;
29954;SDS011;16812;51.168;6.840;2022-10-04T15:50:04;5.03;;;3.20;;
29954;SDS011;16812;51.168;6.840;2022-10-04T15:52:43;7.73;;;3.90;;
29954;SDS011;16812;51.168;6.840;2022-10-04T15:55:16;4.40;;;3.47;;
29954;SDS011;16812;51.168;6.840;2022-10-04T15:57:57;9.83;;;3.30;;
29954;SDS011;16812;51.168;6.840;2022-10-04T16:00:27;5.00;;;3.50;;
29954;SDS011;16812;51.168;6.840;2022-10-04T16:03:01;6.20;;;3.27;;
29954;SDS011;16812;51.168;6.840;2022-10-04T16:05:32;6.87;;;3.53;;
29954;SDS011;16812;51.168;6.840;2022-10-04T16:08:04;7.57;;;4.00;;
29954;SDS011;16812;51.168;6.840;2022-10-04T16:10:49;6.43;;;4.20;;
29954;SDS011;16812;51.168;6.840;2022-10-04T16:16:16;4.93;;;3.60;;
29954;SDS011;16812;51.168;6.840;2022-10-04T16:18:49;7.50;;;4.13;;
29954;SDS011;16812;51.168;6.840;2022-10-04T16:21:24;5.97;;;3.60;;
29954;SDS011;16812;51.168;6.840;2022-10-04T16:29:23;6.93;;;3.60;;
29954;SDS011;16812;51.168;6.840;2022-10-04T16:31:55;5.60;;;4.23;;
29954;SDS011;16812;51.168;6.840;2022-10-04T16:34:37;4.87;;;3.67;;
29954;SDS011;16812;51.168;6.840;2022-10-04T16:37:11;6.00;;;4.43;;
29954;SDS011;16812;51.168;6.840;2022-10-04T16:39:47;13.33;;;4.50;;
29954;SDS011;16812;51.168;6.840;2022-10-04T16:42:15;4.63;;;3.80;;
29954;SDS011;16812;51.168;6.840;2022-10-04T16:44:46;13.47;;;4.10;;
29954;SDS011;16812;51.168;6.840;2022-10-04T16:47:16;7.03;;;4.10;;
29954;SDS011;16812;51.168;6.840;2022-10-04T16:49:51;9.10;;;3.97;;
29954;SDS011;16812;51.168;6.840;2022-10-04T16:55:15;7.13;;;4.33;;